createdAt,value
2023-05-02T00:02:52.014Z,2.7
2023-05-02T00:18:02.209Z,2.8
2023-05-02T00:33:12.337Z,3.2
2023-05-02T00:48:22.254Z,3.9
2023-05-02T01:03:32.198Z,6.3
2023-05-02T01:18:42.537Z,8.6
2023-05-02T01:33:52.274Z,9
2023-05-02T01:49:01.353Z,11.5
2023-05-02T02:04:10.923Z,11.1
2023-05-02T02:19:21.021Z,12.9
2023-05-02T02:34:31.032Z,15.7
2023-05-02T02:49:40.503Z,14.2
2023-05-02T03:04:49.300Z,15.3
2023-05-02T03:19:59.095Z,13.4
2023-05-02T03:35:09.503Z,15.4
2023-05-02T03:50:19.665Z,15.1
2023-05-02T04:05:29.766Z,15.1
2023-05-02T04:20:39.654Z,14.7
2023-05-02T04:35:49.386Z,15.5
2023-05-02T04:50:58.596Z,13.2
2023-05-02T05:06:07.991Z,3.3
2023-05-02T05:21:19.588Z,2.1
2023-05-02T05:36:29.074Z,3.9
2023-05-02T05:51:38.689Z,3.8
2023-05-02T06:06:48.485Z,4.3
2023-05-02T06:21:58.411Z,4.9
2023-05-02T06:37:08.955Z,4.6
2023-05-02T06:52:18.785Z,4.4
2023-05-02T07:07:28.522Z,3.8
2023-05-02T07:22:38.136Z,4.7
2023-05-02T07:37:48.254Z,4.1
2023-05-02T07:52:58.415Z,4.6
2023-05-02T08:08:08.043Z,3.5
2023-05-02T08:23:20.188Z,3.6
2023-05-02T08:38:29.926Z,4.2
2023-05-02T08:53:39.098Z,3.6
2023-05-02T09:08:48.579Z,5.2
2023-05-02T09:23:58.434Z,3
2023-05-02T09:39:08.839Z,3.1
2023-05-02T09:54:19.356Z,3.6
2023-05-02T10:09:29.452Z,3.4
2023-05-02T10:25:49.422Z,4.9
2023-05-02T10:41:00.010Z,4.3
2023-05-02T10:56:10.014Z,4.4
2023-05-02T11:11:19.725Z,4
2023-05-02T11:26:29.716Z,4.2
2023-05-02T11:41:39.289Z,4.3
2023-05-02T11:56:49.080Z,4.7
2023-05-02T12:11:58.959Z,4.6
2023-05-02T12:27:09.421Z,3.5
2023-05-02T12:42:20.380Z,3.5
2023-05-02T12:57:30.558Z,3.2
2023-05-02T13:12:39.717Z,3
2023-05-02T13:27:48.735Z,3.3
2023-05-02T13:42:58.599Z,2.6
2023-05-02T13:58:08.175Z,2.7
2023-05-02T14:13:20.245Z,2
2023-05-02T14:28:29.833Z,3.6
2023-05-02T14:43:39.614Z,2.5
2023-05-02T14:58:48.914Z,2.5
2023-05-02T15:13:59.857Z,2.8
2023-05-02T15:29:09.583Z,1.9
2023-05-02T15:44:20.213Z,2.2
2023-05-02T15:59:30.304Z,1.9
2023-05-02T16:14:39.588Z,2.5
2023-05-02T16:29:49.441Z,2.3
2023-05-02T16:44:58.752Z,2.4
2023-05-02T17:00:08.295Z,2.9
2023-05-02T17:15:18.311Z,2.2
2023-05-02T17:30:28.229Z,2.7
2023-05-02T17:45:37.903Z,2.9
2023-05-02T18:00:47.727Z,2.2
2023-05-02T18:15:56.976Z,2.5
2023-05-02T18:31:06.675Z,2.7
2023-05-02T18:46:20.916Z,2.6
2023-05-02T19:01:30.666Z,2.8
2023-05-02T19:16:40.586Z,3
2023-05-02T19:31:50.456Z,2.5
2023-05-02T19:47:01.277Z,2.9
2023-05-02T20:02:11.088Z,2.7
2023-05-02T20:17:21.035Z,3.1
2023-05-02T20:32:31.075Z,2.6
2023-05-02T20:47:41.288Z,2.3
2023-05-02T21:02:51.053Z,2.3
2023-05-02T21:18:00.660Z,3.1
2023-05-02T21:33:10.299Z,2.9
2023-05-02T21:48:20.171Z,2.7
2023-05-02T22:03:29.929Z,3.4
2023-05-02T22:18:39.750Z,3.4
2023-05-02T22:33:48.610Z,3
2023-05-02T22:48:57.075Z,3.5
2023-05-02T23:04:06.363Z,3.1
2023-05-02T23:19:16.031Z,2.9
2023-05-02T23:34:25.209Z,3
2023-05-02T23:49:34.395Z,3.3
